PWSweather.com
Personal Weather Stations
Station Observations
KCARIDGE3
Ridgecrest, CA 93555

Ridgecrest, CA 93555

Lat: 35.62083817, Lon: -117.6733017

Elevation: 2315

Station Type:

High Low Average
Temperature 79.3°F26.3°C 59.5°F15.3°C 67.6°F19.8°C
Dew Point 42.6°F5.9°C 34.7°F1.5°C 39.8°F4.3°C
Winds 23.0 mph 37.0 kmh 0.9 mph 1.4 kmh 10.0 mph SSW16.1 kmh SSW
Wind Gusts 29.1 mph46.8 kmh -- 10.0 mph16.1 kmh
Humidity 52% 20% 37%
Pressure -338605.1 mb -338605.1 mb -
Precipitation 0.00 in0.0 mm - -
Hour Temp Dew Point Humidity Winds Wind Gusts Pressure Precip Precip Rate Daily Precip Total
12:02 AM 64.2°F17.9°C 38.1°F3.4°C 38% 10.1 mph S16.3 kmh S 6.9 mph11.1 kmh -338605.1 mb - 0.00 in0.0 mm 0.00 in0.0 mm
12:07 AM 64.4°F18.0°C 38.3°F3.5°C 38% 8.9 mph SSE14.3 kmh SSE 6.9 mph11.1 kmh -338605.1 mb - 0.00 in0.0 mm 0.00 in0.0 mm
12:12 AM 64.6°F18.1°C 39.0°F3.9°C 39% 8.9 mph SSW14.3 kmh SSW 8.9 mph14.3 kmh -338605.1 mb - 0.00 in0.0 mm 0.00 in0.0 mm
12:17 AM 64.6°F18.1°C 39.0°F3.9°C 39% 10.1 mph SSW16.3 kmh SSW 6.9 mph11.1 kmh -338605.1 mb - 0.00 in0.0 mm 0.00 in0.0 mm
12:22 AM 64.6°F18.1°C 39.0°F3.9°C 39% 10.1 mph S16.3 kmh S 11.0 mph17.7 kmh -338605.1 mb - 0.00 in0.0 mm 0.00 in0.0 mm
12:27 AM 64.4°F18.0°C 38.8°F3.8°C 39% 10.1 mph S16.3 kmh S 10.1 mph16.3 kmh -338605.1 mb - 0.00 in0.0 mm 0.00 in0.0 mm
12:32 AM 64.4°F18.0°C 38.8°F3.8°C 39% 8.9 mph SSW14.3 kmh SSW 8.9 mph14.3 kmh -338605.1 mb - 0.00 in0.0 mm 0.00 in0.0 mm
12:37 AM 64.2°F17.9°C 38.7°F3.7°C 39% 8.9 mph SSW14.3 kmh SSW 6.9 mph11.1 kmh -338605.1 mb - 0.00 in0.0 mm 0.00 in0.0 mm
12:42 AM 64.4°F18.0°C 38.3°F3.5°C 38% 10.1 mph S16.3 kmh S 4.9 mph7.9 kmh -338605.1 mb - 0.00 in0.0 mm 0.00 in0.0 mm
12:47 AM 64.4°F18.0°C 38.8°F3.8°C 39% 10.1 mph S16.3 kmh S 12.1 mph19.5 kmh -338605.1 mb - 0.00 in0.0 mm 0.00 in0.0 mm
12:52 AM 64.0°F17.8°C 38.7°F3.7°C 39% 11.0 mph S17.7 kmh S 8.1 mph13.0 kmh -338605.1 mb - 0.00 in0.0 mm 0.00 in0.0 mm
12:57 AM 64.0°F17.8°C 38.7°F3.7°C 39% 11.0 mph SSW17.7 kmh SSW 8.9 mph14.3 kmh -338605.1 mb - 0.00 in0.0 mm 0.00 in0.0 mm
01:02 AM 63.9°F17.7°C 38.5°F3.6°C 39% 10.1 mph SSW16.3 kmh SSW 8.9 mph14.3 kmh -338605.1 mb - 0.00 in0.0 mm 0.00 in0.0 mm
01:07 AM 63.9°F17.7°C 38.5°F3.6°C 39% 8.9 mph SSW14.3 kmh SSW 10.1 mph16.3 kmh -338605.1 mb - 0.00 in0.0 mm 0.00 in0.0 mm
01:12 AM 63.9°F17.7°C 38.5°F3.6°C 39% 8.9 mph SSW14.3 kmh SSW 14.1 mph22.7 kmh -338605.1 mb - 0.00 in0.0 mm 0.00 in0.0 mm
01:17 AM 63.9°F17.7°C 38.5°F3.6°C 39% 8.9 mph SSW14.3 kmh SSW 10.1 mph16.3 kmh -338605.1 mb - 0.00 in0.0 mm 0.00 in0.0 mm
01:22 AM 63.7°F17.6°C 38.8°F3.8°C 40% 10.1 mph SSW16.3 kmh SSW 11.0 mph17.7 kmh -338605.1 mb - 0.00 in0.0 mm 0.00 in0.0 mm
01:27 AM 63.7°F17.6°C 38.8°F3.8°C 40% 11.0 mph SW17.7 kmh SW 11.0 mph17.7 kmh -338605.1 mb - 0.00 in0.0 mm 0.00 in0.0 mm
01:32 AM 63.7°F17.6°C 39.6°F4.2°C 41% 10.1 mph SW16.3 kmh SW 12.1 mph19.5 kmh -338605.1 mb - 0.00 in0.0 mm 0.00 in0.0 mm
01:37 AM 63.7°F17.6°C 39.6°F4.2°C 41% 10.1 mph SSW16.3 kmh SSW 8.9 mph14.3 kmh -338605.1 mb - 0.00 in0.0 mm 0.00 in0.0 mm
01:42 AM 63.7°F17.6°C 39.6°F4.2°C 41% 11.0 mph SW17.7 kmh SW 12.1 mph19.5 kmh -338605.1 mb - 0.00 in0.0 mm 0.00 in0.0 mm
01:47 AM 63.5°F17.5°C 40.6°F4.8°C 43% 10.1 mph SSW16.3 kmh SSW 4.9 mph7.9 kmh -338605.1 mb - 0.00 in0.0 mm 0.00 in0.0 mm
01:52 AM 63.9°F17.7°C 41.0°F5.0°C 43% 8.1 mph SSW13.0 kmh SSW 8.1 mph13.0 kmh -338605.1 mb - 0.00 in0.0 mm 0.00 in0.0 mm
01:57 AM 63.7°F17.6°C 39.6°F4.2°C 41% 8.1 mph SSW13.0 kmh SSW 4.0 mph6.4 kmh -338605.1 mb - 0.00 in0.0 mm 0.00 in0.0 mm
02:02 AM 63.3°F17.4°C 39.9°F4.4°C 42% 8.1 mph SW13.0 kmh SW 12.1 mph19.5 kmh -338605.1 mb - 0.00 in0.0 mm 0.00 in0.0 mm
02:07 AM 63.1°F17.3°C 39.7°F4.3°C 42% 6.9 mph SW11.1 kmh SW 4.9 mph7.9 kmh -338605.1 mb - 0.00 in0.0 mm 0.00 in0.0 mm
02:12 AM 62.8°F17.1°C 39.4°F4.1°C 42% 6.9 mph SW11.1 kmh SW 14.1 mph22.7 kmh -338605.1 mb - 0.00 in0.0 mm 0.00 in0.0 mm
02:17 AM 62.8°F17.1°C 39.9°F4.4°C 43% 8.1 mph SSW13.0 kmh SSW 8.1 mph13.0 kmh -338605.1 mb - 0.00 in0.0 mm 0.00 in0.0 mm
02:22 AM 62.8°F17.1°C 39.9°F4.4°C 43% 8.9 mph SSW14.3 kmh SSW 6.9 mph11.1 kmh -338605.1 mb - 0.00 in0.0 mm 0.00 in0.0 mm
02:27 AM 63.0°F17.2°C 40.1°F4.5°C 43% 8.1 mph S13.0 kmh S 11.0 mph17.7 kmh -338605.1 mb - 0.00 in0.0 mm 0.00 in0.0 mm
02:32 AM 63.1°F17.3°C 39.7°F4.3°C 42% 6.9 mph S11.1 kmh S 4.0 mph6.4 kmh -338605.1 mb - 0.00 in0.0 mm 0.00 in0.0 mm
02:37 AM 62.8°F17.1°C 39.4°F4.1°C 42% 8.1 mph S13.0 kmh S 6.9 mph11.1 kmh -338605.1 mb - 0.00 in0.0 mm 0.00 in0.0 mm
02:42 AM 62.4°F16.9°C 39.6°F4.2°C 43% 8.9 mph SSW14.3 kmh SSW 2.9 mph4.7 kmh -338605.1 mb - 0.00 in0.0 mm 0.00 in0.0 mm
02:47 AM 62.4°F16.9°C 39.0°F3.9°C 42% 8.9 mph SW14.3 kmh SW 6.9 mph11.1 kmh -338605.1 mb - 0.00 in0.0 mm 0.00 in0.0 mm
02:52 AM 62.4°F16.9°C 39.0°F3.9°C 42% 8.9 mph S14.3 kmh S 8.9 mph14.3 kmh -338605.1 mb - 0.00 in0.0 mm 0.00 in0.0 mm
02:57 AM 62.2°F16.8°C 40.1°F4.5°C 44% 8.1 mph S13.0 kmh S 2.9 mph4.7 kmh -338605.1 mb - 0.00 in0.0 mm 0.00 in0.0 mm
03:02 AM 62.1°F16.7°C 39.4°F4.1°C 43% 8.1 mph SSW13.0 kmh SSW 4.9 mph7.9 kmh -338605.1 mb - 0.00 in0.0 mm 0.00 in0.0 mm
03:07 AM 61.9°F16.6°C 39.7°F4.3°C 44% 6.9 mph SW11.1 kmh SW 8.9 mph14.3 kmh -338605.1 mb - 0.00 in0.0 mm 0.00 in0.0 mm
03:12 AM 62.1°F16.7°C 39.9°F4.4°C 44% 8.1 mph SSW13.0 kmh SSW 11.0 mph17.7 kmh -338605.1 mb - 0.00 in0.0 mm 0.00 in0.0 mm
03:17 AM 61.9°F16.6°C 39.7°F4.3°C 44% 8.1 mph SSW13.0 kmh SSW 2.9 mph4.7 kmh -338605.1 mb - 0.00 in0.0 mm 0.00 in0.0 mm
03:22 AM 61.9°F16.6°C 39.7°F4.3°C 44% 6.9 mph SSW11.1 kmh SSW 4.9 mph7.9 kmh -338605.1 mb - 0.00 in0.0 mm 0.00 in0.0 mm
03:27 AM 61.7°F16.5°C 39.6°F4.2°C 44% 8.1 mph SSW13.0 kmh SSW 6.0 mph9.7 kmh -338605.1 mb - 0.00 in0.0 mm 0.00 in0.0 mm
03:32 AM 61.5°F16.4°C 39.4°F4.1°C 44% 8.9 mph SW14.3 kmh SW 8.1 mph13.0 kmh -338605.1 mb - 0.00 in0.0 mm 0.00 in0.0 mm
03:37 AM 61.9°F16.6°C 39.7°F4.3°C 44% 8.1 mph SSW13.0 kmh SSW 8.9 mph14.3 kmh -338605.1 mb - 0.00 in0.0 mm 0.00 in0.0 mm
03:42 AM 61.9°F16.6°C 39.7°F4.3°C 44% 6.9 mph S11.1 kmh S 6.0 mph9.7 kmh -338605.1 mb - 0.00 in0.0 mm 0.00 in0.0 mm
03:47 AM 62.1°F16.7°C 40.5°F4.7°C 45% 6.9 mph SSW11.1 kmh SSW 10.1 mph16.3 kmh -338605.1 mb - 0.00 in0.0 mm 0.00 in0.0 mm
03:52 AM 61.9°F16.6°C 39.7°F4.3°C 44% 6.9 mph SSW11.1 kmh SSW 4.9 mph7.9 kmh -338605.1 mb - 0.00 in0.0 mm 0.00 in0.0 mm
03:57 AM 61.3°F16.3°C 39.2°F4.0°C 44% 6.9 mph SSW11.1 kmh SSW 8.9 mph14.3 kmh -338605.1 mb - 0.00 in0.0 mm 0.00 in0.0 mm
04:02 AM 61.5°F16.4°C 39.4°F4.1°C 44% 6.9 mph SSW11.1 kmh SSW 4.0 mph6.4 kmh -338605.1 mb - 0.00 in0.0 mm 0.00 in0.0 mm
04:07 AM 61.9°F16.6°C 40.3°F4.6°C 45% 6.9 mph S11.1 kmh S 6.0 mph9.7 kmh -338605.1 mb - 0.00 in0.0 mm 0.00 in0.0 mm
04:12 AM 61.3°F16.3°C 39.2°F4.0°C 44% 6.9 mph S11.1 kmh S 6.0 mph9.7 kmh -338605.1 mb - 0.00 in0.0 mm 0.00 in0.0 mm
04:17 AM 61.3°F16.3°C 39.2°F4.0°C 44% 6.9 mph S11.1 kmh S 8.1 mph13.0 kmh -338605.1 mb - 0.00 in0.0 mm 0.00 in0.0 mm
04:22 AM 61.3°F16.3°C 39.2°F4.0°C 44% 6.9 mph SW11.1 kmh SW 8.1 mph13.0 kmh -338605.1 mb - 0.00 in0.0 mm 0.00 in0.0 mm
04:27 AM 61.0°F16.1°C 40.6°F4.8°C 47% 4.9 mph S7.9 kmh S 2.9 mph4.7 kmh -338605.1 mb - 0.00 in0.0 mm 0.00 in0.0 mm
04:32 AM 61.9°F16.6°C 40.3°F4.6°C 45% 6.0 mph SSW9.7 kmh SSW 6.9 mph11.1 kmh -338605.1 mb - 0.00 in0.0 mm 0.00 in0.0 mm
04:37 AM 61.5°F16.4°C 39.4°F4.1°C 44% 6.9 mph S11.1 kmh S 6.0 mph9.7 kmh -338605.1 mb - 0.00 in0.0 mm 0.00 in0.0 mm
04:42 AM 61.0°F16.1°C 39.6°F4.2°C 45% 6.0 mph SW9.7 kmh SW 4.9 mph7.9 kmh -338605.1 mb - 0.00 in0.0 mm 0.00 in0.0 mm
04:47 AM 61.2°F16.2°C 39.7°F4.3°C 45% 4.9 mph SSW7.9 kmh SSW 6.0 mph9.7 kmh -338605.1 mb - 0.00 in0.0 mm 0.00 in0.0 mm
04:52 AM 60.8°F16.0°C 39.4°F4.1°C 45% 4.9 mph S7.9 kmh S 8.1 mph13.0 kmh -338605.1 mb - 0.00 in0.0 mm 0.00 in0.0 mm
04:57 AM 61.0°F16.1°C 39.6°F4.2°C 45% 6.0 mph S9.7 kmh S 4.0 mph6.4 kmh -338605.1 mb - 0.00 in0.0 mm 0.00 in0.0 mm
05:02 AM 61.9°F16.6°C 39.7°F4.3°C 44% 6.0 mph S9.7 kmh S 4.9 mph7.9 kmh -338605.1 mb - 0.00 in0.0 mm 0.00 in0.0 mm
05:07 AM 61.2°F16.2°C 39.0°F3.9°C 44% 4.0 mph S6.4 kmh S 4.9 mph7.9 kmh -338605.1 mb - 0.00 in0.0 mm 0.00 in0.0 mm
05:12 AM 61.2°F16.2°C 39.7°F4.3°C 45% 4.9 mph SSW7.9 kmh SSW 4.0 mph6.4 kmh -338605.1 mb - 0.00 in0.0 mm 0.00 in0.0 mm
05:17 AM 61.0°F16.1°C 39.6°F4.2°C 45% 4.9 mph SSW7.9 kmh SSW 6.9 mph11.1 kmh -338605.1 mb - 0.00 in0.0 mm 0.00 in0.0 mm
05:22 AM 60.4°F15.8°C 39.6°F4.2°C 46% 6.0 mph S9.7 kmh S 6.0 mph9.7 kmh -338605.1 mb - 0.00 in0.0 mm 0.00 in0.0 mm
05:27 AM 61.3°F16.3°C 39.7°F4.3°C 45% 4.9 mph S7.9 kmh S 8.1 mph13.0 kmh -338605.1 mb - 0.00 in0.0 mm 0.00 in0.0 mm
05:32 AM 61.3°F16.3°C 39.2°F4.0°C 44% 6.0 mph S9.7 kmh S 8.1 mph13.0 kmh -338605.1 mb - 0.00 in0.0 mm 0.00 in0.0 mm
05:37 AM 61.0°F16.1°C 38.8°F3.8°C 44% 6.9 mph SSW11.1 kmh SSW 6.9 mph11.1 kmh -338605.1 mb - 0.00 in0.0 mm 0.00 in0.0 mm
05:42 AM 61.2°F16.2°C 39.0°F3.9°C 44% 8.1 mph S13.0 kmh S 8.9 mph14.3 kmh -338605.1 mb - 0.00 in0.0 mm 0.00 in0.0 mm
05:47 AM 60.8°F16.0°C 39.4°F4.1°C 45% 8.1 mph S13.0 kmh S 2.0 mph3.2 kmh -338605.1 mb - 0.00 in0.0 mm 0.00 in0.0 mm
05:52 AM 60.8°F16.0°C 39.4°F4.1°C 45% 6.0 mph SSW9.7 kmh SSW 6.9 mph11.1 kmh -338605.1 mb - 0.00 in0.0 mm 0.00 in0.0 mm
05:57 AM 61.3°F16.3°C 39.7°F4.3°C 45% 6.0 mph SSW9.7 kmh SSW 4.9 mph7.9 kmh -338605.1 mb - 0.00 in0.0 mm 0.00 in0.0 mm
06:02 AM 61.3°F16.3°C 39.2°F4.0°C 44% 6.0 mph S9.7 kmh S 6.9 mph11.1 kmh -338605.1 mb - 0.00 in0.0 mm 0.00 in0.0 mm
06:07 AM 61.2°F16.2°C 39.0°F3.9°C 44% 6.0 mph SSW9.7 kmh SSW 6.9 mph11.1 kmh -338605.1 mb - 0.00 in0.0 mm 0.00 in0.0 mm
06:12 AM 60.6°F15.9°C 39.2°F4.0°C 45% 4.9 mph S7.9 kmh S 12.1 mph19.5 kmh -338605.1 mb - 0.00 in0.0 mm 0.00 in0.0 mm
06:17 AM 61.3°F16.3°C 39.2°F4.0°C 44% 4.9 mph S7.9 kmh S 4.0 mph6.4 kmh -338605.1 mb - 0.00 in0.0 mm 0.00 in0.0 mm
06:22 AM 61.3°F16.3°C 39.2°F4.0°C 44% 6.0 mph S9.7 kmh S 4.9 mph7.9 kmh -338605.1 mb - 0.00 in0.0 mm 0.00 in0.0 mm
06:27 AM 61.7°F16.5°C 39.0°F3.9°C 43% 6.0 mph S9.7 kmh S 4.9 mph7.9 kmh -338605.1 mb - 0.00 in0.0 mm 0.00 in0.0 mm
06:32 AM 61.2°F16.2°C 39.0°F3.9°C 44% 4.9 mph SSW7.9 kmh SSW 4.9 mph7.9 kmh -338605.1 mb - 0.00 in0.0 mm 0.00 in0.0 mm
06:37 AM 61.0°F16.1°C 39.6°F4.2°C 45% 4.9 mph SW7.9 kmh SW 2.0 mph3.2 kmh -338605.1 mb - 0.00 in0.0 mm 0.00 in0.0 mm
06:42 AM 61.2°F16.2°C 39.7°F4.3°C 45% 2.9 mph SW4.7 kmh SW 2.9 mph4.7 kmh -338605.1 mb - 0.00 in0.0 mm 0.00 in0.0 mm
06:47 AM 62.6°F17.0°C 39.7°F4.3°C 43% 2.9 mph SW4.7 kmh SW 2.9 mph4.7 kmh -338605.1 mb - 0.00 in0.0 mm 0.00 in0.0 mm
06:52 AM 63.0°F17.2°C 40.1°F4.5°C 43% 2.9 mph SW4.7 kmh SW 4.9 mph7.9 kmh -338605.1 mb - 0.00 in0.0 mm 0.00 in0.0 mm
06:57 AM 63.0°F17.2°C 40.1°F4.5°C 43% 2.9 mph SW4.7 kmh SW 2.9 mph4.7 kmh -338605.1 mb - 0.00 in0.0 mm 0.00 in0.0 mm
07:02 AM 63.0°F17.2°C 40.6°F4.8°C 44% 2.9 mph SW4.7 kmh SW 4.0 mph6.4 kmh -338605.1 mb - 0.00 in0.0 mm 0.00 in0.0 mm
07:07 AM 63.0°F17.2°C 40.1°F4.5°C 43% 2.9 mph SSW4.7 kmh SSW 2.9 mph4.7 kmh -338605.1 mb - 0.00 in0.0 mm 0.00 in0.0 mm
07:12 AM 63.5°F17.5°C 39.9°F4.4°C 42% 4.0 mph S6.4 kmh S 4.0 mph6.4 kmh -338605.1 mb - 0.00 in0.0 mm 0.00 in0.0 mm
07:17 AM 63.9°F17.7°C 39.7°F4.3°C 41% 2.9 mph S4.7 kmh S -- -338605.1 mb - 0.00 in0.0 mm 0.00 in0.0 mm
07:22 AM 63.7°F17.6°C 40.1°F4.5°C 42% 2.0 mph S3.2 kmh S 4.0 mph6.4 kmh -338605.1 mb - 0.00 in0.0 mm 0.00 in0.0 mm
07:27 AM 63.3°F17.4°C 40.5°F4.7°C 43% 4.0 mph SW6.4 kmh SW 10.1 mph16.3 kmh -338605.1 mb - 0.00 in0.0 mm 0.00 in0.0 mm
07:32 AM 63.1°F17.3°C 40.3°F4.6°C 43% 6.0 mph SW9.7 kmh SW 4.9 mph7.9 kmh -338605.1 mb - 0.00 in0.0 mm 0.00 in0.0 mm
07:37 AM 63.3°F17.4°C 40.5°F4.7°C 43% 6.0 mph SW9.7 kmh SW 6.9 mph11.1 kmh -338605.1 mb - 0.00 in0.0 mm 0.00 in0.0 mm
07:42 AM 63.3°F17.4°C 40.5°F4.7°C 43% 6.0 mph SW9.7 kmh SW 12.1 mph19.5 kmh -338605.1 mb - 0.00 in0.0 mm 0.00 in0.0 mm
07:47 AM 63.3°F17.4°C 40.5°F4.7°C 43% 6.0 mph SSW9.7 kmh SSW 6.9 mph11.1 kmh -338605.1 mb - 0.00 in0.0 mm 0.00 in0.0 mm
07:52 AM 63.9°F17.7°C 41.0°F5.0°C 43% 6.0 mph SW9.7 kmh SW 2.9 mph4.7 kmh -338605.1 mb - 0.00 in0.0 mm 0.00 in0.0 mm
07:57 AM 64.6°F18.1°C 41.0°F5.0°C 42% 6.0 mph SW9.7 kmh SW 6.9 mph11.1 kmh -338605.1 mb - 0.00 in0.0 mm 0.00 in0.0 mm
08:02 AM 64.9°F18.3°C 40.6°F4.8°C 41% 6.0 mph SSW9.7 kmh SSW 6.0 mph9.7 kmh -338605.1 mb - 0.00 in0.0 mm 0.00 in0.0 mm
08:07 AM 64.9°F18.3°C 40.6°F4.8°C 41% 6.9 mph S11.1 kmh S 6.0 mph9.7 kmh -338605.1 mb - 0.00 in0.0 mm 0.00 in0.0 mm
08:12 AM 64.9°F18.3°C 40.6°F4.8°C 41% 6.9 mph SW11.1 kmh SW 6.0 mph9.7 kmh -338605.1 mb - 0.00 in0.0 mm 0.00 in0.0 mm
08:17 AM 65.3°F18.5°C 40.3°F4.6°C 40% 6.9 mph SW11.1 kmh SW 4.0 mph6.4 kmh -338605.1 mb - 0.00 in0.0 mm 0.00 in0.0 mm
08:22 AM 65.7°F18.7°C 40.6°F4.8°C 40% 6.0 mph WSW9.7 kmh WSW 0.9 mph1.4 kmh -338605.1 mb - 0.00 in0.0 mm 0.00 in0.0 mm
08:27 AM 66.6°F19.2°C 40.8°F4.9°C 39% 4.9 mph SSE7.9 kmh SSE 2.9 mph4.7 kmh -338605.1 mb - 0.00 in0.0 mm 0.00 in0.0 mm
08:32 AM 66.7°F19.3°C 41.0°F5.0°C 39% 4.0 mph WSW6.4 kmh WSW 4.0 mph6.4 kmh -338605.1 mb - 0.00 in0.0 mm 0.00 in0.0 mm
08:37 AM 67.5°F19.7°C 41.0°F5.0°C 38% 4.0 mph W6.4 kmh W 4.9 mph7.9 kmh -338605.1 mb - 0.00 in0.0 mm 0.00 in0.0 mm
08:42 AM 66.7°F19.3°C 41.0°F5.0°C 39% 4.0 mph SW6.4 kmh SW 8.1 mph13.0 kmh -338605.1 mb - 0.00 in0.0 mm 0.00 in0.0 mm
08:47 AM 66.4°F19.1°C 39.9°F4.4°C 38% 4.9 mph WSW7.9 kmh WSW 2.9 mph4.7 kmh -338605.1 mb - 0.00 in0.0 mm 0.00 in0.0 mm
08:52 AM 66.7°F19.3°C 41.0°F5.0°C 39% 2.9 mph SW4.7 kmh SW 2.0 mph3.2 kmh -338605.1 mb - 0.00 in0.0 mm 0.00 in0.0 mm
08:57 AM 68.7°F20.4°C 41.4°F5.2°C 37% 2.0 mph S3.2 kmh S 2.0 mph3.2 kmh -338605.1 mb - 0.00 in0.0 mm 0.00 in0.0 mm
09:02 AM 67.6°F19.8°C 40.5°F4.7°C 37% 0.9 mph S1.4 kmh S 2.0 mph3.2 kmh -338605.1 mb - 0.00 in0.0 mm 0.00 in0.0 mm
09:07 AM 67.6°F19.8°C 41.2°F5.1°C 38% 2.9 mph SW4.7 kmh SW 6.0 mph9.7 kmh -338605.1 mb - 0.00 in0.0 mm 0.00 in0.0 mm
09:12 AM 68.2°F20.1°C 41.0°F5.0°C 37% 4.0 mph WSW6.4 kmh WSW 4.0 mph6.4 kmh -338605.1 mb - 0.00 in0.0 mm 0.00 in0.0 mm
09:17 AM 67.6°F19.8°C 40.5°F4.7°C 37% 2.9 mph W4.7 kmh W 0.9 mph1.4 kmh -338605.1 mb - 0.00 in0.0 mm 0.00 in0.0 mm
09:22 AM 68.2°F20.1°C 41.0°F5.0°C 37% 2.9 mph W4.7 kmh W 6.0 mph9.7 kmh -338605.1 mb - 0.00 in0.0 mm 0.00 in0.0 mm
09:27 AM 68.0°F20.0°C 41.4°F5.2°C 38% 2.0 mph WSW3.2 kmh WSW 0.9 mph1.4 kmh -338605.1 mb - 0.00 in0.0 mm 0.00 in0.0 mm
09:32 AM 68.7°F20.4°C 41.4°F5.2°C 37% 2.9 mph WSW4.7 kmh WSW 6.0 mph9.7 kmh -338605.1 mb - 0.00 in0.0 mm 0.00 in0.0 mm
09:37 AM 68.7°F20.4°C 40.6°F4.8°C 36% 4.0 mph WSW6.4 kmh WSW 4.0 mph6.4 kmh -338605.1 mb - 0.00 in0.0 mm 0.00 in0.0 mm
09:42 AM 67.5°F19.7°C 40.3°F4.6°C 37% 4.0 mph W6.4 kmh W 4.9 mph7.9 kmh -338605.1 mb - 0.00 in0.0 mm 0.00 in0.0 mm
09:47 AM 68.4°F20.2°C 41.0°F5.0°C 37% 2.9 mph W4.7 kmh W 2.0 mph3.2 kmh -338605.1 mb - 0.00 in0.0 mm 0.00 in0.0 mm
09:52 AM 71.2°F21.8°C 41.4°F5.2°C 34% 2.0 mph ESE3.2 kmh ESE -- -338605.1 mb - 0.00 in0.0 mm 0.00 in0.0 mm
09:57 AM 70.5°F21.4°C 40.8°F4.9°C 34% 0.9 mph ESE1.4 kmh ESE 0.9 mph1.4 kmh -338605.1 mb - 0.00 in0.0 mm 0.00 in0.0 mm
10:02 AM 70.5°F21.4°C 40.8°F4.9°C 34% 0.9 mph SE1.4 kmh SE 6.0 mph9.7 kmh -338605.1 mb - 0.00 in0.0 mm 0.00 in0.0 mm
10:07 AM 71.2°F21.8°C 41.4°F5.2°C 34% 4.0 mph SSW6.4 kmh SSW 6.0 mph9.7 kmh -338605.1 mb - 0.00 in0.0 mm 0.00 in0.0 mm
10:12 AM 71.8°F22.1°C 41.2°F5.1°C 33% 4.0 mph S6.4 kmh S -- -338605.1 mb - 0.00 in0.0 mm 0.00 in0.0 mm
10:17 AM 70.2°F21.2°C 40.5°F4.7°C 34% 2.0 mph W3.2 kmh W 0.9 mph1.4 kmh -338605.1 mb - 0.00 in0.0 mm 0.00 in0.0 mm
10:22 AM 71.2°F21.8°C 41.4°F5.2°C 34% 0.9 mph W1.4 kmh W -- -338605.1 mb - 0.00 in0.0 mm 0.00 in0.0 mm
10:27 AM 70.9°F21.6°C 41.9°F5.5°C 35% 0.9 mph SW1.4 kmh SW 4.0 mph6.4 kmh -338605.1 mb - 0.00 in0.0 mm 0.00 in0.0 mm
10:32 AM 70.2°F21.2°C 40.5°F4.7°C 34% 2.0 mph SW3.2 kmh SW 0.9 mph1.4 kmh -338605.1 mb - 0.00 in0.0 mm 0.00 in0.0 mm
10:37 AM 70.3°F21.3°C 40.6°F4.8°C 34% 2.9 mph SE4.7 kmh SE 4.0 mph6.4 kmh -338605.1 mb - 0.00 in0.0 mm 0.00 in0.0 mm
10:42 AM 72.5°F22.5°C 41.0°F5.0°C 32% 2.9 mph E4.7 kmh E 4.0 mph6.4 kmh -338605.1 mb - 0.00 in0.0 mm 0.00 in0.0 mm
10:47 AM 71.1°F21.7°C 40.5°F4.7°C 33% 2.9 mph E4.7 kmh E -- -338605.1 mb - 0.00 in0.0 mm 0.00 in0.0 mm
10:52 AM 71.8°F22.1°C 40.3°F4.6°C 32% 2.0 mph WSW3.2 kmh WSW 8.1 mph13.0 kmh -338605.1 mb - 0.00 in0.0 mm 0.00 in0.0 mm
10:57 AM 72.3°F22.4°C 40.8°F4.9°C 32% 2.9 mph WSW4.7 kmh WSW 2.9 mph4.7 kmh -338605.1 mb - 0.00 in0.0 mm 0.00 in0.0 mm
11:02 AM 71.8°F22.1°C 41.2°F5.1°C 33% 4.0 mph S6.4 kmh S 4.9 mph7.9 kmh -338605.1 mb - 0.00 in0.0 mm 0.00 in0.0 mm
11:07 AM 73.9°F23.3°C 40.5°F4.7°C 30% 2.9 mph S4.7 kmh S 0.9 mph1.4 kmh -338605.1 mb - 0.00 in0.0 mm 0.00 in0.0 mm
11:12 AM 72.7°F22.6°C 40.3°F4.6°C 31% 2.0 mph S3.2 kmh S -- -338605.1 mb - 0.00 in0.0 mm 0.00 in0.0 mm
11:17 AM 74.1°F23.4°C 40.6°F4.8°C 30% 2.0 mph SE3.2 kmh SE 4.0 mph6.4 kmh -338605.1 mb - 0.00 in0.0 mm 0.00 in0.0 mm
11:22 AM 75.6°F24.2°C 41.0°F5.0°C 29% 4.0 mph E6.4 kmh E 6.0 mph9.7 kmh -338605.1 mb - 0.00 in0.0 mm 0.00 in0.0 mm
11:27 AM 75.6°F24.2°C 41.0°F5.0°C 29% 4.0 mph E6.4 kmh E 2.9 mph4.7 kmh -338605.1 mb - 0.00 in0.0 mm 0.00 in0.0 mm
11:32 AM 74.1°F23.4°C 39.9°F4.4°C 29% 2.9 mph E4.7 kmh E 2.0 mph3.2 kmh -338605.1 mb - 0.00 in0.0 mm 0.00 in0.0 mm
11:37 AM 73.9°F23.3°C 40.5°F4.7°C 30% 2.0 mph E3.2 kmh E 2.0 mph3.2 kmh -338605.1 mb - 0.00 in0.0 mm 0.00 in0.0 mm
11:42 AM 75.7°F24.3°C 40.3°F4.6°C 28% 2.0 mph E3.2 kmh E 0.9 mph1.4 kmh -338605.1 mb - 0.00 in0.0 mm 0.00 in0.0 mm
11:47 AM 75.7°F24.3°C 41.2°F5.1°C 29% 2.9 mph SE4.7 kmh SE 0.9 mph1.4 kmh -338605.1 mb - 0.00 in0.0 mm 0.00 in0.0 mm
11:52 AM 75.4°F24.1°C 41.0°F5.0°C 29% 4.0 mph WSW6.4 kmh WSW 2.9 mph4.7 kmh -338605.1 mb - 0.00 in0.0 mm 0.00 in0.0 mm
11:57 AM 74.8°F23.8°C 41.4°F5.2°C 30% 4.0 mph SE6.4 kmh SE 2.9 mph4.7 kmh -338605.1 mb - 0.00 in0.0 mm 0.00 in0.0 mm
12:02 PM 77.5°F25.3°C 41.0°F5.0°C 27% 4.0 mph E6.4 kmh E 6.0 mph9.7 kmh -338605.1 mb - 0.00 in0.0 mm 0.00 in0.0 mm
12:07 PM 77.7°F25.4°C 40.1°F4.5°C 26% 4.9 mph SW7.9 kmh SW 8.9 mph14.3 kmh -338605.1 mb - 0.00 in0.0 mm 0.00 in0.0 mm
12:12 PM 76.3°F24.6°C 38.8°F3.8°C 26% 6.0 mph W9.7 kmh W 4.9 mph7.9 kmh -338605.1 mb - 0.00 in0.0 mm 0.00 in0.0 mm
12:17 PM 75.6°F24.2°C 40.1°F4.5°C 28% 4.9 mph SSW7.9 kmh SSW 8.9 mph14.3 kmh -338605.1 mb - 0.00 in0.0 mm 0.00 in0.0 mm
12:22 PM 76.8°F24.9°C 39.4°F4.1°C 26% 6.0 mph SSW9.7 kmh SSW 6.0 mph9.7 kmh -338605.1 mb - 0.00 in0.0 mm 0.00 in0.0 mm
12:27 PM 76.6°F24.8°C 38.1°F3.4°C 25% 6.0 mph SW9.7 kmh SW 2.0 mph3.2 kmh -338605.1 mb - 0.00 in0.0 mm 0.00 in0.0 mm
12:32 PM 76.6°F24.8°C 39.2°F4.0°C 26% 2.9 mph SSE4.7 kmh SSE 10.1 mph16.3 kmh -338605.1 mb - 0.00 in0.0 mm 0.00 in0.0 mm
12:37 PM 77.2°F25.1°C 39.6°F4.2°C 26% 8.1 mph SW13.0 kmh SW 10.1 mph16.3 kmh -338605.1 mb - 0.00 in0.0 mm 0.00 in0.0 mm
12:42 PM 77.2°F25.1°C 37.6°F3.1°C 24% 11.0 mph S17.7 kmh S 8.1 mph13.0 kmh -338605.1 mb - 0.00 in0.0 mm 0.00 in0.0 mm
12:47 PM 76.8°F24.9°C 37.2°F2.9°C 24% 10.1 mph SSE16.3 kmh SSE 10.1 mph16.3 kmh -338605.1 mb - 0.00 in0.0 mm 0.00 in0.0 mm
12:52 PM 76.8°F24.9°C 37.2°F2.9°C 24% 10.1 mph SW16.3 kmh SW 6.0 mph9.7 kmh -338605.1 mb - 0.00 in0.0 mm 0.00 in0.0 mm
12:57 PM 76.8°F24.9°C 38.3°F3.5°C 25% 8.9 mph S14.3 kmh S 10.1 mph16.3 kmh -338605.1 mb - 0.00 in0.0 mm 0.00 in0.0 mm
01:02 PM 77.0°F25.0°C 37.4°F3.0°C 24% 6.9 mph SSW11.1 kmh SSW 4.0 mph6.4 kmh -338605.1 mb - 0.00 in0.0 mm 0.00 in0.0 mm
01:07 PM 77.7°F25.4°C 37.0°F2.8°C 23% 6.9 mph SSW11.1 kmh SSW 6.9 mph11.1 kmh -338605.1 mb - 0.00 in0.0 mm 0.00 in0.0 mm
01:12 PM 77.2°F25.1°C 35.4°F1.9°C 22% 6.9 mph SW11.1 kmh SW 6.9 mph11.1 kmh -338605.1 mb - 0.00 in0.0 mm 0.00 in0.0 mm
01:17 PM 78.1°F25.6°C 37.2°F2.9°C 23% 8.1 mph SW13.0 kmh SW 11.0 mph17.7 kmh -338605.1 mb - 0.00 in0.0 mm 0.00 in0.0 mm
01:22 PM 77.5°F25.3°C 36.9°F2.7°C 23% 10.1 mph SSW16.3 kmh SSW 8.1 mph13.0 kmh -338605.1 mb - 0.00 in0.0 mm 0.00 in0.0 mm
01:27 PM 77.5°F25.3°C 35.8°F2.1°C 22% 8.9 mph SSW14.3 kmh SSW 8.1 mph13.0 kmh -338605.1 mb - 0.00 in0.0 mm 0.00 in0.0 mm
01:32 PM 78.3°F25.7°C 35.1°F1.7°C 21% 8.1 mph SW13.0 kmh SW 6.9 mph11.1 kmh -338605.1 mb - 0.00 in0.0 mm 0.00 in0.0 mm
01:37 PM 78.3°F25.7°C 36.3°F2.4°C 22% 8.1 mph WSW13.0 kmh WSW 2.0 mph3.2 kmh -338605.1 mb - 0.00 in0.0 mm 0.00 in0.0 mm
01:42 PM 78.3°F25.7°C 36.3°F2.4°C 22% 6.9 mph WSW11.1 kmh WSW 15.0 mph24.1 kmh -338605.1 mb - 0.00 in0.0 mm 0.00 in0.0 mm
01:47 PM 79.0°F26.1°C 35.8°F2.1°C 21% 6.9 mph S11.1 kmh S 4.0 mph6.4 kmh -338605.1 mb - 0.00 in0.0 mm 0.00 in0.0 mm
01:52 PM 79.2°F26.2°C 34.7°F1.5°C 20% 6.0 mph SSE9.7 kmh SSE 6.0 mph9.7 kmh -338605.1 mb - 0.00 in0.0 mm 0.00 in0.0 mm
01:57 PM 78.6°F25.9°C 35.4°F1.9°C 21% 6.9 mph S11.1 kmh S 15.0 mph24.1 kmh -338605.1 mb - 0.00 in0.0 mm 0.00 in0.0 mm
02:02 PM 78.4°F25.8°C 36.5°F2.5°C 22% 10.1 mph SSE16.3 kmh SSE 6.0 mph9.7 kmh -338605.1 mb - 0.00 in0.0 mm 0.00 in0.0 mm
02:07 PM 78.1°F25.6°C 37.2°F2.9°C 23% 8.1 mph SW13.0 kmh SW 6.0 mph9.7 kmh -338605.1 mb - 0.00 in0.0 mm 0.00 in0.0 mm
02:12 PM 79.0°F26.1°C 35.8°F2.1°C 21% 6.9 mph SW11.1 kmh SW 16.1 mph25.9 kmh -338605.1 mb - 0.00 in0.0 mm 0.00 in0.0 mm
02:17 PM 79.2°F26.2°C 37.0°F2.8°C 22% 8.9 mph SW14.3 kmh SW 10.1 mph16.3 kmh -338605.1 mb - 0.00 in0.0 mm 0.00 in0.0 mm
02:22 PM 79.3°F26.3°C 36.0°F2.2°C 21% 8.9 mph WSW14.3 kmh WSW 13.0 mph20.9 kmh -338605.1 mb - 0.00 in0.0 mm 0.00 in0.0 mm
02:27 PM 79.3°F26.3°C 36.0°F2.2°C 21% 10.1 mph S16.3 kmh S 19.0 mph30.6 kmh -338605.1 mb - 0.00 in0.0 mm 0.00 in0.0 mm
02:32 PM 79.3°F26.3°C 34.7°F1.5°C 20% 12.1 mph SSW19.5 kmh SSW 8.1 mph13.0 kmh -338605.1 mb - 0.00 in0.0 mm 0.00 in0.0 mm
02:37 PM 79.0°F26.1°C 36.9°F2.7°C 22% 8.9 mph SW14.3 kmh SW 10.1 mph16.3 kmh -338605.1 mb - 0.00 in0.0 mm 0.00 in0.0 mm
02:42 PM 79.0°F26.1°C 36.9°F2.7°C 22% 8.9 mph S14.3 kmh S 13.0 mph20.9 kmh -338605.1 mb - 0.00 in0.0 mm 0.00 in0.0 mm
02:47 PM 78.6°F25.9°C 37.8°F3.2°C 23% 11.0 mph SW17.7 kmh SW 15.0 mph24.1 kmh -338605.1 mb - 0.00 in0.0 mm 0.00 in0.0 mm
02:52 PM 78.6°F25.9°C 38.8°F3.8°C 24% 13.0 mph S20.9 kmh S 17.0 mph27.4 kmh -338605.1 mb - 0.00 in0.0 mm 0.00 in0.0 mm
02:57 PM 78.4°F25.8°C 38.7°F3.7°C 24% 14.1 mph SSW22.7 kmh SSW 6.0 mph9.7 kmh -338605.1 mb - 0.00 in0.0 mm 0.00 in0.0 mm
03:02 PM 78.4°F25.8°C 37.6°F3.1°C 23% 13.0 mph SE20.9 kmh SE 11.0 mph17.7 kmh -338605.1 mb - 0.00 in0.0 mm 0.00 in0.0 mm
03:07 PM 77.7°F25.4°C 40.1°F4.5°C 26% 14.1 mph S22.7 kmh S 21.9 mph35.2 kmh -338605.1 mb - 0.00 in0.0 mm 0.00 in0.0 mm
03:12 PM 78.1°F25.6°C 39.4°F4.1°C 25% 16.1 mph SSW25.9 kmh SSW 12.1 mph19.5 kmh -338605.1 mb - 0.00 in0.0 mm 0.00 in0.0 mm
03:17 PM 78.3°F25.7°C 38.5°F3.6°C 24% 16.1 mph S25.9 kmh S 17.9 mph28.8 kmh -338605.1 mb - 0.00 in0.0 mm 0.00 in0.0 mm
03:22 PM 78.3°F25.7°C 39.6°F4.2°C 25% 15.0 mph SW24.1 kmh SW 11.0 mph17.7 kmh -338605.1 mb - 0.00 in0.0 mm 0.00 in0.0 mm
03:27 PM 77.7°F25.4°C 38.1°F3.4°C 24% 15.0 mph S24.1 kmh S 15.0 mph24.1 kmh -338605.1 mb - 0.00 in0.0 mm 0.00 in0.0 mm
03:32 PM 77.7°F25.4°C 35.8°F2.1°C 22% 16.1 mph S25.9 kmh S 23.9 mph38.5 kmh -338605.1 mb - 0.00 in0.0 mm 0.00 in0.0 mm
03:37 PM 77.5°F25.3°C 35.8°F2.1°C 22% 16.1 mph SSW25.9 kmh SSW 21.9 mph35.2 kmh -338605.1 mb - 0.00 in0.0 mm 0.00 in0.0 mm
03:42 PM 77.5°F25.3°C 35.8°F2.1°C 22% 14.1 mph S22.7 kmh S 17.0 mph27.4 kmh -338605.1 mb - 0.00 in0.0 mm 0.00 in0.0 mm
03:47 PM 77.4°F25.2°C 35.6°F2.0°C 22% 15.0 mph SW24.1 kmh SW 13.0 mph20.9 kmh -338605.1 mb - 0.00 in0.0 mm 0.00 in0.0 mm
03:52 PM 76.6°F24.8°C 34.9°F1.6°C 22% 17.0 mph SSW27.4 kmh SSW 14.1 mph22.7 kmh -338605.1 mb - 0.00 in0.0 mm 0.00 in0.0 mm
03:57 PM 76.5°F24.7°C 36.0°F2.2°C 23% 17.0 mph S27.4 kmh S 16.1 mph25.9 kmh -338605.1 mb - 0.00 in0.0 mm 0.00 in0.0 mm
04:02 PM 76.8°F24.9°C 36.1°F2.3°C 23% 16.1 mph SSW25.9 kmh SSW 15.0 mph24.1 kmh -338605.1 mb - 0.00 in0.0 mm 0.00 in0.0 mm
04:07 PM 76.6°F24.8°C 37.2°F2.9°C 24% 17.9 mph S28.8 kmh S 19.0 mph30.6 kmh -338605.1 mb - 0.00 in0.0 mm 0.00 in0.0 mm
04:12 PM 76.3°F24.6°C 36.9°F2.7°C 24% 17.9 mph S28.8 kmh S 27.1 mph43.6 kmh -338605.1 mb - 0.00 in0.0 mm 0.00 in0.0 mm
04:17 PM 76.3°F24.6°C 37.9°F3.3°C 25% 17.0 mph SSW27.4 kmh SSW 17.9 mph28.8 kmh -338605.1 mb - 0.00 in0.0 mm 0.00 in0.0 mm
04:22 PM 75.7°F24.3°C 37.4°F3.0°C 25% 16.1 mph SSW25.9 kmh SSW 11.0 mph17.7 kmh -338605.1 mb - 0.00 in0.0 mm 0.00 in0.0 mm
04:27 PM 75.7°F24.3°C 38.5°F3.6°C 26% 16.1 mph S25.9 kmh S 19.0 mph30.6 kmh -338605.1 mb - 0.00 in0.0 mm 0.00 in0.0 mm
04:32 PM 75.4°F24.1°C 38.1°F3.4°C 26% 17.9 mph S28.8 kmh S 21.9 mph35.2 kmh -338605.1 mb - 0.00 in0.0 mm 0.00 in0.0 mm
04:37 PM 75.6°F24.2°C 38.3°F3.5°C 26% 17.9 mph SSW28.8 kmh SSW 14.1 mph22.7 kmh -338605.1 mb - 0.00 in0.0 mm 0.00 in0.0 mm
04:42 PM 75.7°F24.3°C 37.4°F3.0°C 25% 15.0 mph S24.1 kmh S 13.0 mph20.9 kmh -338605.1 mb - 0.00 in0.0 mm 0.00 in0.0 mm
04:47 PM 75.4°F24.1°C 38.1°F3.4°C 26% 16.1 mph S25.9 kmh S 21.0 mph33.8 kmh -338605.1 mb - 0.00 in0.0 mm 0.00 in0.0 mm
04:52 PM 75.4°F24.1°C 40.1°F4.5°C 28% 17.0 mph SSW27.4 kmh SSW 19.9 mph32.0 kmh -338605.1 mb - 0.00 in0.0 mm 0.00 in0.0 mm
04:57 PM 74.7°F23.7°C 37.6°F3.1°C 26% 17.9 mph S28.8 kmh S 14.1 mph22.7 kmh -338605.1 mb - 0.00 in0.0 mm 0.00 in0.0 mm
05:02 PM 74.7°F23.7°C 39.4°F4.1°C 28% 17.0 mph SW27.4 kmh SW 25.1 mph40.4 kmh -338605.1 mb - 0.00 in0.0 mm 0.00 in0.0 mm
05:07 PM 74.5°F23.6°C 39.2°F4.0°C 28% 17.0 mph S27.4 kmh S 23.0 mph37.0 kmh -338605.1 mb - 0.00 in0.0 mm 0.00 in0.0 mm
05:12 PM 74.1°F23.4°C 37.9°F3.3°C 27% 17.9 mph SSW28.8 kmh SSW 29.1 mph46.8 kmh -338605.1 mb - 0.00 in0.0 mm 0.00 in0.0 mm
05:17 PM 73.6°F23.1°C 38.5°F3.6°C 28% 19.9 mph S32.0 kmh S 19.0 mph30.6 kmh -338605.1 mb - 0.00 in0.0 mm 0.00 in0.0 mm
05:22 PM 73.4°F23.0°C 38.3°F3.5°C 28% 19.0 mph SW30.6 kmh SW 16.1 mph25.9 kmh -338605.1 mb - 0.00 in0.0 mm 0.00 in0.0 mm
05:27 PM 72.7°F22.6°C 38.7°F3.7°C 29% 19.0 mph SW30.6 kmh SW 28.0 mph45.1 kmh -338605.1 mb - 0.00 in0.0 mm 0.00 in0.0 mm
05:32 PM 72.5°F22.5°C 39.4°F4.1°C 30% 19.9 mph S32.0 kmh S 13.0 mph20.9 kmh -338605.1 mb - 0.00 in0.0 mm 0.00 in0.0 mm
05:37 PM 72.7°F22.6°C 39.4°F4.1°C 30% 19.0 mph SSW30.6 kmh SSW 25.1 mph40.4 kmh -338605.1 mb - 0.00 in0.0 mm 0.00 in0.0 mm
05:42 PM 72.3°F22.4°C 39.2°F4.0°C 30% 19.9 mph SSW32.0 kmh SSW 21.0 mph33.8 kmh -338605.1 mb - 0.00 in0.0 mm 0.00 in0.0 mm
05:47 PM 71.6°F22.0°C 40.1°F4.5°C 32% 21.0 mph S33.8 kmh S 11.0 mph17.7 kmh -338605.1 mb - 0.00 in0.0 mm 0.00 in0.0 mm
05:52 PM 71.6°F22.0°C 40.1°F4.5°C 32% 17.9 mph S28.8 kmh S 19.9 mph32.0 kmh -338605.1 mb - 0.00 in0.0 mm 0.00 in0.0 mm
05:57 PM 71.4°F21.9°C 39.2°F4.0°C 31% 17.9 mph SSW28.8 kmh SSW 25.9 mph41.7 kmh -338605.1 mb - 0.00 in0.0 mm 0.00 in0.0 mm
06:02 PM 71.2°F21.8°C 39.9°F4.4°C 32% 21.0 mph S33.8 kmh S 25.9 mph41.7 kmh -338605.1 mb - 0.00 in0.0 mm 0.00 in0.0 mm
06:07 PM 71.1°F21.7°C 40.5°F4.7°C 33% 19.9 mph S32.0 kmh S 25.9 mph41.7 kmh -338605.1 mb - 0.00 in0.0 mm 0.00 in0.0 mm
06:12 PM 70.5°F21.4°C 40.8°F4.9°C 34% 19.0 mph SSW30.6 kmh SSW 8.1 mph13.0 kmh -338605.1 mb - 0.00 in0.0 mm 0.00 in0.0 mm
06:17 PM 70.2°F21.2°C 40.5°F4.7°C 34% 19.9 mph SSW32.0 kmh SSW 21.9 mph35.2 kmh -338605.1 mb - 0.00 in0.0 mm 0.00 in0.0 mm
06:22 PM 69.8°F21.0°C 40.1°F4.5°C 34% 21.0 mph S33.8 kmh S 19.9 mph32.0 kmh -338605.1 mb - 0.00 in0.0 mm 0.00 in0.0 mm
06:27 PM 69.6°F20.9°C 39.9°F4.4°C 34% 21.9 mph SSW35.2 kmh SSW 28.0 mph45.1 kmh -338605.1 mb - 0.00 in0.0 mm 0.00 in0.0 mm
06:32 PM 69.1°F20.6°C 40.3°F4.6°C 35% 23.0 mph SSW37.0 kmh SSW 27.1 mph43.6 kmh -338605.1 mb - 0.00 in0.0 mm 0.00 in0.0 mm
06:37 PM 69.1°F20.6°C 40.3°F4.6°C 35% 21.9 mph S35.2 kmh S 16.1 mph25.9 kmh -338605.1 mb - 0.00 in0.0 mm 0.00 in0.0 mm
06:42 PM 68.9°F20.5°C 39.4°F4.1°C 34% 19.0 mph SSW30.6 kmh SSW 21.9 mph35.2 kmh -338605.1 mb - 0.00 in0.0 mm 0.00 in0.0 mm
06:47 PM 68.7°F20.4°C 39.9°F4.4°C 35% 19.0 mph S30.6 kmh S 17.0 mph27.4 kmh -338605.1 mb - 0.00 in0.0 mm 0.00 in0.0 mm
06:52 PM 68.7°F20.4°C 39.9°F4.4°C 35% 17.9 mph SSW28.8 kmh SSW 21.0 mph33.8 kmh -338605.1 mb - 0.00 in0.0 mm 0.00 in0.0 mm
06:57 PM 68.5°F20.3°C 39.7°F4.3°C 35% 17.0 mph S27.4 kmh S 21.9 mph35.2 kmh -338605.1 mb - 0.00 in0.0 mm 0.00 in0.0 mm
07:02 PM 68.4°F20.2°C 39.6°F4.2°C 35% 19.9 mph SSW32.0 kmh SSW 11.0 mph17.7 kmh -338605.1 mb - 0.00 in0.0 mm 0.00 in0.0 mm
07:07 PM 67.8°F19.9°C 39.2°F4.0°C 35% 19.9 mph SSW32.0 kmh SSW 21.0 mph33.8 kmh -338605.1 mb - 0.00 in0.0 mm 0.00 in0.0 mm
07:12 PM 67.5°F19.7°C 38.8°F3.8°C 35% 19.0 mph S30.6 kmh S 17.9 mph28.8 kmh -338605.1 mb - 0.00 in0.0 mm 0.00 in0.0 mm
07:17 PM 67.3°F19.6°C 38.7°F3.7°C 35% 19.0 mph S30.6 kmh S 17.0 mph27.4 kmh -338605.1 mb - 0.00 in0.0 mm 0.00 in0.0 mm
07:22 PM 66.9°F19.4°C 39.0°F3.9°C 36% 17.9 mph SSE28.8 kmh SSE 12.1 mph19.5 kmh -338605.1 mb - 0.00 in0.0 mm 0.00 in0.0 mm
07:27 PM 66.9°F19.4°C 39.0°F3.9°C 36% 16.1 mph S25.9 kmh S 12.1 mph19.5 kmh -338605.1 mb - 0.00 in0.0 mm 0.00 in0.0 mm
07:32 PM 66.6°F19.2°C 39.6°F4.2°C 37% 16.1 mph S25.9 kmh S 14.1 mph22.7 kmh -338605.1 mb - 0.00 in0.0 mm 0.00 in0.0 mm
07:37 PM 66.7°F19.3°C 40.3°F4.6°C 38% 17.0 mph S27.4 kmh S 13.0 mph20.9 kmh -338605.1 mb - 0.00 in0.0 mm 0.00 in0.0 mm
07:42 PM 66.4°F19.1°C 39.9°F4.4°C 38% 15.0 mph S24.1 kmh S 17.0 mph27.4 kmh -338605.1 mb - 0.00 in0.0 mm 0.00 in0.0 mm
07:47 PM 66.2°F19.0°C 40.5°F4.7°C 39% 13.0 mph SW20.9 kmh SW 12.1 mph19.5 kmh -338605.1 mb - 0.00 in0.0 mm 0.00 in0.0 mm
07:52 PM 65.8°F18.8°C 40.8°F4.9°C 40% 13.0 mph SW20.9 kmh SW 8.9 mph14.3 kmh -338605.1 mb - 0.00 in0.0 mm 0.00 in0.0 mm
07:57 PM 65.7°F18.7°C 41.4°F5.2°C 41% 13.0 mph S20.9 kmh S 29.1 mph46.8 kmh -338605.1 mb - 0.00 in0.0 mm 0.00 in0.0 mm
08:02 PM 65.7°F18.7°C 41.4°F5.2°C 41% 14.1 mph S22.7 kmh S 19.9 mph32.0 kmh -338605.1 mb - 0.00 in0.0 mm 0.00 in0.0 mm
08:07 PM 65.3°F18.5°C 41.0°F5.0°C 41% 14.1 mph SSW22.7 kmh SSW 8.1 mph13.0 kmh -338605.1 mb - 0.00 in0.0 mm 0.00 in0.0 mm
08:12 PM 65.5°F18.6°C 41.2°F5.1°C 41% 13.0 mph SSW20.9 kmh SSW 8.1 mph13.0 kmh -338605.1 mb - 0.00 in0.0 mm 0.00 in0.0 mm
08:17 PM 65.5°F18.6°C 41.7°F5.4°C 42% 12.1 mph SSW19.5 kmh SSW 10.1 mph16.3 kmh -338605.1 mb - 0.00 in0.0 mm 0.00 in0.0 mm
08:22 PM 64.9°F18.3°C 41.4°F5.2°C 42% 11.0 mph SSW17.7 kmh SSW 6.9 mph11.1 kmh -338605.1 mb - 0.00 in0.0 mm 0.00 in0.0 mm
08:27 PM 64.8°F18.2°C 41.2°F5.1°C 42% 11.0 mph SSW17.7 kmh SSW 4.9 mph7.9 kmh -338605.1 mb - 0.00 in0.0 mm 0.00 in0.0 mm
08:32 PM 64.6°F18.1°C 41.0°F5.0°C 42% 12.1 mph S19.5 kmh S 8.1 mph13.0 kmh -338605.1 mb - 0.00 in0.0 mm 0.00 in0.0 mm
08:37 PM 64.2°F17.9°C 41.2°F5.1°C 43% 11.0 mph SSW17.7 kmh SSW 6.0 mph9.7 kmh -338605.1 mb - 0.00 in0.0 mm 0.00 in0.0 mm
08:42 PM 64.0°F17.8°C 41.2°F5.1°C 43% 12.1 mph S19.5 kmh S 11.0 mph17.7 kmh -338605.1 mb - 0.00 in0.0 mm 0.00 in0.0 mm
08:47 PM 64.2°F17.9°C 41.2°F5.1°C 43% 12.1 mph S19.5 kmh S 10.1 mph16.3 kmh -338605.1 mb - 0.00 in0.0 mm 0.00 in0.0 mm
08:52 PM 63.9°F17.7°C 41.5°F5.3°C 44% 12.1 mph S19.5 kmh S 12.1 mph19.5 kmh -338605.1 mb - 0.00 in0.0 mm 0.00 in0.0 mm
08:57 PM 63.7°F17.6°C 41.4°F5.2°C 44% 13.0 mph SSW20.9 kmh SSW 11.0 mph17.7 kmh -338605.1 mb - 0.00 in0.0 mm 0.00 in0.0 mm
09:02 PM 63.7°F17.6°C 41.4°F5.2°C 44% 13.0 mph SSW20.9 kmh SSW 14.1 mph22.7 kmh -338605.1 mb - 0.00 in0.0 mm 0.00 in0.0 mm
09:07 PM 63.5°F17.5°C 41.2°F5.1°C 44% 12.1 mph S19.5 kmh S 17.9 mph28.8 kmh -338605.1 mb - 0.00 in0.0 mm 0.00 in0.0 mm
09:12 PM 63.5°F17.5°C 41.7°F5.4°C 45% 12.1 mph S19.5 kmh S 11.0 mph17.7 kmh -338605.1 mb - 0.00 in0.0 mm 0.00 in0.0 mm
09:17 PM 63.0°F17.2°C 41.4°F5.2°C 45% 13.0 mph SE20.9 kmh SE 6.0 mph9.7 kmh -338605.1 mb - 0.00 in0.0 mm 0.00 in0.0 mm
09:22 PM 63.1°F17.3°C 41.5°F5.3°C 45% 11.0 mph SSE17.7 kmh SSE 4.9 mph7.9 kmh -338605.1 mb - 0.00 in0.0 mm 0.00 in0.0 mm
09:27 PM 63.0°F17.2°C 41.4°F5.2°C 45% 10.1 mph S16.3 kmh S 13.0 mph20.9 kmh -338605.1 mb - 0.00 in0.0 mm 0.00 in0.0 mm
09:32 PM 62.8°F17.1°C 41.2°F5.1°C 45% 12.1 mph S19.5 kmh S 13.0 mph20.9 kmh -338605.1 mb - 0.00 in0.0 mm 0.00 in0.0 mm
09:37 PM 62.4°F16.9°C 41.4°F5.2°C 46% 14.1 mph S22.7 kmh S 15.0 mph24.1 kmh -338605.1 mb - 0.00 in0.0 mm 0.00 in0.0 mm
09:42 PM 62.2°F16.8°C 41.2°F5.1°C 46% 16.1 mph SSW25.9 kmh SSW 11.0 mph17.7 kmh -338605.1 mb - 0.00 in0.0 mm 0.00 in0.0 mm
09:47 PM 62.1°F16.7°C 41.5°F5.3°C 47% 16.1 mph S25.9 kmh S 19.0 mph30.6 kmh -338605.1 mb - 0.00 in0.0 mm 0.00 in0.0 mm
09:52 PM 62.1°F16.7°C 41.5°F5.3°C 47% 16.1 mph SSE25.9 kmh SSE 8.9 mph14.3 kmh -338605.1 mb - 0.00 in0.0 mm 0.00 in0.0 mm
09:57 PM 62.2°F16.8°C 41.2°F5.1°C 46% 14.1 mph S22.7 kmh S 16.1 mph25.9 kmh -338605.1 mb - 0.00 in0.0 mm 0.00 in0.0 mm
10:02 PM 62.2°F16.8°C 41.2°F5.1°C 46% 13.0 mph S20.9 kmh S 10.1 mph16.3 kmh -338605.1 mb - 0.00 in0.0 mm 0.00 in0.0 mm
10:07 PM 62.1°F16.7°C 41.0°F5.0°C 46% 12.1 mph S19.5 kmh S 11.0 mph17.7 kmh -338605.1 mb - 0.00 in0.0 mm 0.00 in0.0 mm
10:12 PM 62.1°F16.7°C 41.5°F5.3°C 47% 12.1 mph S19.5 kmh S 21.0 mph33.8 kmh -338605.1 mb - 0.00 in0.0 mm 0.00 in0.0 mm
10:17 PM 62.2°F16.8°C 41.2°F5.1°C 46% 12.1 mph S19.5 kmh S 13.0 mph20.9 kmh -338605.1 mb - 0.00 in0.0 mm 0.00 in0.0 mm
10:22 PM 62.1°F16.7°C 41.5°F5.3°C 47% 13.0 mph S20.9 kmh S 13.0 mph20.9 kmh -338605.1 mb - 0.00 in0.0 mm 0.00 in0.0 mm
10:27 PM 61.7°F16.5°C 41.9°F5.5°C 48% 14.1 mph S22.7 kmh S 19.9 mph32.0 kmh -338605.1 mb - 0.00 in0.0 mm 0.00 in0.0 mm
10:32 PM 61.5°F16.4°C 41.7°F5.4°C 48% 15.0 mph S24.1 kmh S 19.9 mph32.0 kmh -338605.1 mb - 0.00 in0.0 mm 0.00 in0.0 mm
10:37 PM 61.5°F16.4°C 41.2°F5.1°C 47% 16.1 mph S25.9 kmh S 16.1 mph25.9 kmh -338605.1 mb - 0.00 in0.0 mm 0.00 in0.0 mm
10:42 PM 61.5°F16.4°C 41.7°F5.4°C 48% 16.1 mph S25.9 kmh S 10.1 mph16.3 kmh -338605.1 mb - 0.00 in0.0 mm 0.00 in0.0 mm
10:47 PM 61.5°F16.4°C 41.7°F5.4°C 48% 15.0 mph S24.1 kmh S 16.1 mph25.9 kmh -338605.1 mb - 0.00 in0.0 mm 0.00 in0.0 mm
10:52 PM 61.3°F16.3°C 41.5°F5.3°C 48% 15.0 mph S24.1 kmh S 10.1 mph16.3 kmh -338605.1 mb - 0.00 in0.0 mm 0.00 in0.0 mm
10:57 PM 61.5°F16.4°C 41.2°F5.1°C 47% 15.0 mph S24.1 kmh S 11.0 mph17.7 kmh -338605.1 mb - 0.00 in0.0 mm 0.00 in0.0 mm
11:02 PM 61.5°F16.4°C 41.2°F5.1°C 47% 16.1 mph S25.9 kmh S 19.9 mph32.0 kmh -338605.1 mb - 0.00 in0.0 mm 0.00 in0.0 mm
11:07 PM 61.2°F16.2°C 41.4°F5.2°C 48% 17.0 mph S27.4 kmh S 17.9 mph28.8 kmh -338605.1 mb - 0.00 in0.0 mm 0.00 in0.0 mm
11:12 PM 60.6°F15.9°C 41.4°F5.2°C 49% 16.1 mph S25.9 kmh S 14.1 mph22.7 kmh -338605.1 mb - 0.00 in0.0 mm 0.00 in0.0 mm
11:17 PM 60.8°F16.0°C 41.5°F5.3°C 49% 16.1 mph S25.9 kmh S 16.1 mph25.9 kmh -338605.1 mb - 0.00 in0.0 mm 0.00 in0.0 mm
11:22 PM 60.8°F16.0°C 41.5°F5.3°C 49% 15.0 mph SSW24.1 kmh SSW 17.0 mph27.4 kmh -338605.1 mb - 0.00 in0.0 mm 0.00 in0.0 mm
11:27 PM 60.4°F15.8°C 41.7°F5.4°C 50% 16.1 mph S25.9 kmh S 10.1 mph16.3 kmh -338605.1 mb - 0.00 in0.0 mm 0.00 in0.0 mm
11:32 PM 60.3°F15.7°C 42.6°F5.9°C 52% 16.1 mph S25.9 kmh S 6.9 mph11.1 kmh -338605.1 mb - 0.00 in0.0 mm 0.00 in0.0 mm
11:37 PM 60.4°F15.8°C 42.3°F5.7°C 51% 16.1 mph S25.9 kmh S 11.0 mph17.7 kmh -338605.1 mb - 0.00 in0.0 mm 0.00 in0.0 mm
11:42 PM 60.1°F15.6°C 41.9°F5.5°C 51% 15.0 mph S24.1 kmh S 17.0 mph27.4 kmh -338605.1 mb - 0.00 in0.0 mm 0.00 in0.0 mm
11:47 PM 60.1°F15.6°C 41.9°F5.5°C 51% 13.0 mph S20.9 kmh S 15.0 mph24.1 kmh -338605.1 mb - 0.00 in0.0 mm 0.00 in0.0 mm
11:52 PM 59.9°F15.5°C 41.7°F5.4°C 51% 12.1 mph S19.5 kmh S 17.0 mph27.4 kmh -338605.1 mb - 0.00 in0.0 mm 0.00 in0.0 mm
11:57 PM 60.1°F15.6°C 41.9°F5.5°C 51% 13.0 mph SSW20.9 kmh SSW 14.1 mph22.7 kmh -338605.1 mb - 0.00 in0.0 mm 0.00 in0.0 mm